createdAt,value
2018-04-16T00:02:23.700Z,12.30
2018-04-16T00:04:58.702Z,12.40
2018-04-16T00:07:32.287Z,12.40
2018-04-16T00:10:06.601Z,12.40
2018-04-16T00:12:40.388Z,12.40
2018-04-16T00:15:14.011Z,12.40
2018-04-16T00:17:47.750Z,12.50
2018-04-16T00:20:21.276Z,12.50
2018-04-16T00:22:54.952Z,12.60
2018-04-16T00:25:28.544Z,12.50
2018-04-16T00:28:02.111Z,12.50
2018-04-16T00:30:35.719Z,12.20
2018-04-16T00:33:15.757Z,11.60
2018-04-16T00:35:55.036Z,11.60
2018-04-16T00:38:35.166Z,11.40
2018-04-16T00:41:14.479Z,11.30
2018-04-16T00:57:25.829Z,11.20
2018-04-16T01:00:05.109Z,11.10
2018-04-16T01:02:44.444Z,11.20
2018-04-16T01:05:24.533Z,11.40
2018-04-16T01:08:03.877Z,11.40
2018-04-16T01:10:43.206Z,11.40
2018-04-16T01:13:22.685Z,11.60
2018-04-16T01:16:02.075Z,11.80
2018-04-16T01:18:41.462Z,12.00
2018-04-16T01:34:52.947Z,12.40
2018-04-16T01:37:32.327Z,12.40
2018-04-16T01:40:11.703Z,12.50
2018-04-16T01:42:51.651Z,12.50
2018-04-16T01:45:30.938Z,12.50
2018-04-16T01:48:10.276Z,12.40
2018-04-16T02:04:16.489Z,12.50
2018-04-16T02:06:55.807Z,12.60
2018-04-16T02:23:08.243Z,12.50
2018-04-16T02:25:49.241Z,12.40
2018-04-16T02:28:28.553Z,12.40
2018-04-16T02:31:08.475Z,12.30
2018-04-16T02:33:47.723Z,12.30
2018-04-16T02:36:27.058Z,11.90
2018-04-16T02:39:06.537Z,11.80
2018-04-16T02:41:46.510Z,11.40
2018-04-16T02:44:25.919Z,11.30
2018-04-16T02:47:05.190Z,11.20
2018-04-16T02:49:45.216Z,11.30
2018-04-16T02:52:24.610Z,11.30
2018-04-16T02:55:03.803Z,11.40
2018-04-16T02:57:43.191Z,11.60
2018-04-16T03:00:22.559Z,11.80
2018-04-16T03:03:02.580Z,11.80
2018-04-16T03:05:41.989Z,11.70
2018-04-16T03:08:21.944Z,11.70
2018-04-16T03:11:01.290Z,11.60
2018-04-16T03:13:40.732Z,11.70
2018-04-16T03:16:20.755Z,11.70
2018-04-16T03:19:00.126Z,11.70
2018-04-16T03:21:40.366Z,11.60
2018-04-16T03:24:19.680Z,11.60
2018-04-16T03:26:59.145Z,11.80
2018-04-16T03:29:38.569Z,11.90
2018-04-16T03:32:18.465Z,11.70
2018-04-16T03:34:57.754Z,11.70
2018-04-16T03:37:37.790Z,11.50
2018-04-16T03:40:17.154Z,11.40
2018-04-16T03:42:56.580Z,11.50
2018-04-16T03:45:35.937Z,11.60
2018-04-16T04:01:33.547Z,12.00
2018-04-16T04:04:07.152Z,11.90
2018-04-16T04:06:40.728Z,11.90
2018-04-16T04:09:14.354Z,12.00
2018-04-16T04:11:47.872Z,12.00
2018-04-16T04:14:21.449Z,12.00
2018-04-16T04:16:55.052Z,12.00
2018-04-16T04:19:28.622Z,12.10
2018-04-16T04:22:02.195Z,11.70
2018-04-16T04:24:48.565Z,11.60
2018-04-16T04:27:33.996Z,11.50
2018-04-16T04:43:42.327Z,11.30
2018-04-16T04:46:15.924Z,11.30
2018-04-16T04:48:49.527Z,11.30
2018-04-16T04:51:23.250Z,11.30
2018-04-16T04:53:56.839Z,11.00
2018-04-16T04:56:30.342Z,11.10
2018-04-16T04:59:04.668Z,11.40
2018-04-16T05:01:38.372Z,11.40
2018-04-16T05:04:12.018Z,11.50
2018-04-16T05:06:45.576Z,11.50
2018-04-16T05:09:19.133Z,11.20
2018-04-16T05:11:52.766Z,11.30
2018-04-16T05:14:26.347Z,11.40
2018-04-16T05:16:59.885Z,11.10
2018-04-16T05:19:33.544Z,11.00
2018-04-16T05:22:07.090Z,11.10
2018-04-16T05:24:40.772Z,11.30
2018-04-16T05:27:14.308Z,11.40
2018-04-16T05:29:48.588Z,11.50
2018-04-16T05:32:22.272Z,11.50
2018-04-16T05:34:55.871Z,11.60
2018-04-16T05:37:29.473Z,11.70
2018-04-16T05:40:03.082Z,11.60
2018-04-16T05:42:36.821Z,11.70
2018-04-16T05:45:11.104Z,11.80
2018-04-16T05:47:44.713Z,11.70
2018-04-16T05:50:18.290Z,11.60
2018-04-16T05:52:51.998Z,11.50
2018-04-16T05:55:26.332Z,11.80
2018-04-16T05:57:59.853Z,11.80
2018-04-16T06:00:33.443Z,11.70
2018-04-16T06:03:07.009Z,11.80
2018-04-16T06:05:40.555Z,11.80
2018-04-16T06:08:14.121Z,11.90
2018-04-16T06:10:47.621Z,12.00
2018-04-16T06:13:21.317Z,11.90
2018-04-16T06:15:54.941Z,11.90
2018-04-16T06:18:28.507Z,11.80
2018-04-16T06:21:02.090Z,11.60
2018-04-16T06:23:35.721Z,11.50
2018-04-16T06:26:09.245Z,11.60
2018-04-16T06:28:42.807Z,11.60
2018-04-16T06:31:16.437Z,11.70
2018-04-16T06:33:50.028Z,11.40
2018-04-16T06:36:23.554Z,11.20
2018-04-16T06:38:57.124Z,11.20
2018-04-16T06:41:30.710Z,11.00
2018-04-16T06:44:04.266Z,10.90
2018-04-16T06:46:38.041Z,10.90
2018-04-16T06:49:11.630Z,10.90
2018-04-16T06:51:45.940Z,11.00
2018-04-16T06:54:20.472Z,10.70
2018-04-16T06:56:54.210Z,10.70
2018-04-16T06:59:27.800Z,10.60
2018-04-16T07:02:01.381Z,10.50
2018-04-16T07:04:35.694Z,10.60
2018-04-16T07:07:09.392Z,10.60
2018-04-16T07:09:42.978Z,10.50
2018-04-16T07:12:16.717Z,10.50
2018-04-16T07:14:50.425Z,10.60
2018-04-16T07:17:23.969Z,10.60
2018-04-16T07:19:57.484Z,10.60
2018-04-16T07:22:31.929Z,10.50
2018-04-16T07:25:05.507Z,10.50
2018-04-16T07:27:39.126Z,10.40
2018-04-16T07:30:12.717Z,10.60
2018-04-16T07:32:46.319Z,10.80
2018-04-16T07:35:19.842Z,10.70
2018-04-16T07:37:53.410Z,10.70
2018-04-16T07:40:26.923Z,10.60
2018-04-16T07:43:00.647Z,10.60
2018-04-16T07:45:34.361Z,10.60
2018-04-16T07:48:08.650Z,10.90
2018-04-16T07:50:42.286Z,11.00
2018-04-16T07:53:15.910Z,11.10
2018-04-16T07:55:50.375Z,10.90
2018-04-16T07:58:24.066Z,10.90
2018-04-16T08:00:57.666Z,11.10
2018-04-16T08:03:31.995Z,11.50
2018-04-16T08:06:06.425Z,11.70
2018-04-16T08:08:40.820Z,11.20
2018-04-16T08:11:15.146Z,11.00
2018-04-16T08:13:48.726Z,10.90
2018-04-16T08:16:22.338Z,11.20
2018-04-16T08:18:56.767Z,11.40
2018-04-16T08:21:30.379Z,11.40
2018-04-16T08:24:03.965Z,11.60
2018-04-16T08:26:37.539Z,11.50
2018-04-16T08:29:11.118Z,11.20
2018-04-16T08:31:44.764Z,11.20
2018-04-16T08:34:18.381Z,11.00
2018-04-16T08:36:51.890Z,11.20
2018-04-16T08:39:25.491Z,11.30
2018-04-16T08:41:58.980Z,11.00
2018-04-16T08:44:32.606Z,11.30
2018-04-16T08:47:06.184Z,11.30
2018-04-16T08:49:39.743Z,11.40
2018-04-16T08:52:13.250Z,11.50
2018-04-16T08:54:47.785Z,11.60
2018-04-16T08:57:22.099Z,11.60
2018-04-16T08:59:55.625Z,11.60
2018-04-16T09:02:29.162Z,11.60
2018-04-16T09:05:02.747Z,11.40
2018-04-16T09:07:36.301Z,11.30
2018-04-16T09:10:09.849Z,11.50
2018-04-16T09:12:43.510Z,11.40
2018-04-16T09:15:17.095Z,11.50
2018-04-16T09:17:50.698Z,11.60
2018-04-16T09:20:24.216Z,11.70
2018-04-16T09:22:57.802Z,11.80
2018-04-16T09:25:31.400Z,11.80
2018-04-16T09:28:04.983Z,11.80
2018-04-16T09:30:38.583Z,11.90
2018-04-16T09:33:12.197Z,12.00
2018-04-16T09:35:45.721Z,12.00
2018-04-16T09:38:19.332Z,12.00
2018-04-16T09:40:52.893Z,11.80
2018-04-16T09:43:26.517Z,11.90
2018-04-16T09:46:00.015Z,11.70
2018-04-16T09:48:33.604Z,11.80
2018-04-16T09:51:07.196Z,11.80
2018-04-16T09:53:41.663Z,11.90
2018-04-16T09:56:15.385Z,11.60
2018-04-16T09:58:48.912Z,11.60
2018-04-16T10:01:22.546Z,11.10
2018-04-16T10:03:56.082Z,11.00
2018-04-16T10:06:29.632Z,11.00
2018-04-16T10:09:03.160Z,11.20
2018-04-16T10:11:36.827Z,11.40
2018-04-16T10:14:10.419Z,11.40
2018-04-16T10:16:44.035Z,11.20
2018-04-16T10:19:17.603Z,11.30
2018-04-16T10:21:51.144Z,11.40
2018-04-16T10:24:24.667Z,11.60
2018-04-16T10:26:58.202Z,11.40
2018-04-16T10:29:32.665Z,11.30
2018-04-16T10:32:06.270Z,11.30
2018-04-16T10:34:39.984Z,11.50
2018-04-16T10:37:14.405Z,11.30
2018-04-16T10:39:48.095Z,11.30
2018-04-16T10:42:21.693Z,11.30
2018-04-16T10:44:55.899Z,11.40
2018-04-16T10:47:29.568Z,11.50
2018-04-16T10:50:03.106Z,11.50
2018-04-16T10:52:37.622Z,11.70
2018-04-16T10:55:11.349Z,11.70
2018-04-16T10:57:45.562Z,11.80
2018-04-16T11:00:19.280Z,11.90
2018-04-16T11:02:53.768Z,12.00
2018-04-16T11:05:27.517Z,12.00
2018-04-16T11:08:01.081Z,12.10
2018-04-16T11:10:34.686Z,12.20
2018-04-16T11:13:08.425Z,12.10
2018-04-16T11:15:41.913Z,12.00
2018-04-16T11:18:15.507Z,12.30
2018-04-16T11:20:49.065Z,12.40
2018-04-16T11:23:22.683Z,12.60
2018-04-16T11:25:56.285Z,12.90
2018-04-16T11:28:29.807Z,12.60
2018-04-16T11:31:03.356Z,12.60
2018-04-16T11:33:37.793Z,12.10
2018-04-16T11:36:11.519Z,12.10
2018-04-16T11:38:45.029Z,12.00
2018-04-16T11:41:18.581Z,12.30
2018-04-16T11:43:52.196Z,12.40
2018-04-16T11:46:26.480Z,12.60
2018-04-16T11:49:00.118Z,12.60
2018-04-16T11:51:34.438Z,12.80
2018-04-16T11:54:08.143Z,12.80
2018-04-16T11:56:41.738Z,12.70
2018-04-16T11:59:15.349Z,12.60
2018-04-16T12:01:48.935Z,12.90
2018-04-16T12:04:22.701Z,13.10
2018-04-16T12:06:56.258Z,13.00
2018-04-16T12:09:29.840Z,13.20
2018-04-16T12:12:04.280Z,13.10
2018-04-16T12:14:37.849Z,13.10
2018-04-16T12:17:11.452Z,13.10
2018-04-16T12:19:45.750Z,13.40
2018-04-16T12:22:19.560Z,13.40
2018-04-16T12:24:53.089Z,13.40
2018-04-16T12:27:26.684Z,12.90
2018-04-16T12:30:00.224Z,12.60
2018-04-16T12:32:33.796Z,12.80
2018-04-16T12:35:07.376Z,13.10
2018-04-16T12:37:40.993Z,13.10
2018-04-16T12:40:15.306Z,13.50
2018-04-16T12:42:48.829Z,13.50
2018-04-16T12:45:22.387Z,13.50
2018-04-16T12:47:56.001Z,13.70
2018-04-16T12:50:30.326Z,13.50
2018-04-16T12:53:04.046Z,13.50
2018-04-16T12:55:37.613Z,13.70
2018-04-16T12:58:11.135Z,13.80
2018-04-16T13:00:44.699Z,13.80
2018-04-16T13:03:19.040Z,13.40
2018-04-16T13:05:52.818Z,13.40
2018-04-16T13:08:26.339Z,13.30
2018-04-16T13:10:59.882Z,13.40
2018-04-16T13:13:33.384Z,13.50
2018-04-16T13:16:06.969Z,13.50
2018-04-16T13:18:40.674Z,13.50
2018-04-16T13:21:14.239Z,13.50
2018-04-16T13:23:47.851Z,13.70
2018-04-16T13:26:21.457Z,13.80
2018-04-16T13:28:55.139Z,14.00
2018-04-16T13:31:28.659Z,13.60
2018-04-16T13:34:02.249Z,13.30
2018-04-16T13:36:36.918Z,13.40
2018-04-16T13:39:11.297Z,13.50
2018-04-16T13:41:45.027Z,13.50
2018-04-16T13:44:18.591Z,13.60
2018-04-16T13:46:52.111Z,13.50
2018-04-16T13:49:25.665Z,13.50
2018-04-16T13:51:59.301Z,13.40
2018-04-16T13:54:32.915Z,13.40
2018-04-16T13:57:06.508Z,13.20
2018-04-16T13:59:40.054Z,13.20
2018-04-16T14:02:13.607Z,13.30
2018-04-16T14:04:47.205Z,13.00
2018-04-16T14:07:20.800Z,13.10
2018-04-16T14:09:54.384Z,13.20
2018-04-16T14:12:28.100Z,13.20
2018-04-16T14:15:01.826Z,13.10
2018-04-16T14:17:35.320Z,13.00
2018-04-16T14:20:08.900Z,12.70
2018-04-16T14:22:42.423Z,12.80
2018-04-16T14:25:15.987Z,12.80
2018-04-16T14:27:49.585Z,13.00
2018-04-16T14:30:23.201Z,13.20
2018-04-16T14:32:56.682Z,13.40
2018-04-16T14:35:30.229Z,13.30
2018-04-16T14:38:03.795Z,13.20
2018-04-16T14:40:37.416Z,13.20
2018-04-16T14:43:10.982Z,13.30
2018-04-16T14:45:44.551Z,13.50
2018-04-16T14:48:18.116Z,13.60
2018-04-16T14:50:51.680Z,13.60
2018-04-16T14:53:25.241Z,13.70
2018-04-16T14:55:58.785Z,13.40
2018-04-16T14:58:32.382Z,13.50
2018-04-16T15:01:05.920Z,13.60
2018-04-16T15:03:39.489Z,13.70
2018-04-16T15:06:13.045Z,13.70
2018-04-16T15:08:46.629Z,13.70
2018-04-16T15:11:20.297Z,13.70
2018-04-16T15:13:54.627Z,13.80
2018-04-16T15:16:28.329Z,13.80
2018-04-16T15:19:01.881Z,13.80
2018-04-16T15:21:35.423Z,13.80
2018-04-16T15:24:09.049Z,13.90
2018-04-16T15:26:42.600Z,13.80
2018-04-16T15:29:16.164Z,13.80
2018-04-16T15:31:49.729Z,13.80
2018-04-16T15:34:23.220Z,13.90
2018-04-16T15:36:56.823Z,13.90
2018-04-16T15:39:30.348Z,13.90
2018-04-16T15:42:03.959Z,13.90
2018-04-16T15:44:37.529Z,13.90
2018-04-16T15:47:11.848Z,13.80
2018-04-16T15:49:45.371Z,13.80
2018-04-16T15:52:18.959Z,13.80
2018-04-16T15:54:52.534Z,13.80
2018-04-16T15:57:26.163Z,13.80
2018-04-16T15:59:59.778Z,13.80
2018-04-16T16:02:33.346Z,13.80
2018-04-16T16:05:06.969Z,13.80
2018-04-16T16:07:40.589Z,13.80
2018-04-16T16:10:14.379Z,13.70
2018-04-16T16:12:48.041Z,13.70
2018-04-16T16:15:21.688Z,13.70
2018-04-16T16:17:55.176Z,13.70
2018-04-16T16:20:28.756Z,13.70
2018-04-16T16:23:02.366Z,13.70
2018-04-16T16:25:36.103Z,13.70
2018-04-16T16:28:09.779Z,13.70
2018-04-16T16:30:43.316Z,13.70
2018-04-16T16:33:16.867Z,13.60
2018-04-16T16:35:50.464Z,13.60
2018-04-16T16:38:24.201Z,13.60
2018-04-16T16:40:57.783Z,13.50
2018-04-16T16:43:31.359Z,13.40
2018-04-16T16:46:04.963Z,13.40
2018-04-16T16:48:38.568Z,13.50
2018-04-16T16:51:12.172Z,13.50
2018-04-16T16:53:45.810Z,13.50
2018-04-16T16:56:19.440Z,13.50
2018-04-16T16:58:53.072Z,13.50
2018-04-16T17:01:26.694Z,13.50
2018-04-16T17:04:00.269Z,13.40
2018-04-16T17:06:33.876Z,13.40
2018-04-16T17:09:07.388Z,13.40
2018-04-16T17:11:41.002Z,13.30
2018-04-16T17:14:14.726Z,13.40
2018-04-16T17:16:48.319Z,13.40
2018-04-16T17:19:21.865Z,13.40
2018-04-16T17:21:55.420Z,13.40
2018-04-16T17:24:29.120Z,13.40
2018-04-16T17:27:02.751Z,13.40
2018-04-16T17:29:36.273Z,13.40
2018-04-16T17:32:10.007Z,13.40
2018-04-16T17:34:43.686Z,13.30
2018-04-16T17:37:18.013Z,13.30
2018-04-16T17:39:51.781Z,13.30
2018-04-16T17:42:25.329Z,13.30
2018-04-16T17:44:59.001Z,13.20
2018-04-16T17:47:32.700Z,13.10
2018-04-16T17:50:06.227Z,12.90
2018-04-16T17:52:39.969Z,13.00
2018-04-16T17:55:13.615Z,13.00
2018-04-16T17:57:47.311Z,13.00
2018-04-16T18:00:20.975Z,13.00
2018-04-16T18:02:54.506Z,13.00
2018-04-16T18:05:28.861Z,12.70
2018-04-16T18:08:03.247Z,12.50
2018-04-16T18:10:37.577Z,12.30
2018-04-16T18:13:11.193Z,12.30
2018-04-16T18:15:44.772Z,12.00
2018-04-16T18:18:19.135Z,12.00
2018-04-16T18:20:52.636Z,12.00
2018-04-16T18:23:26.308Z,12.20
2018-04-16T18:25:59.992Z,12.00
2018-04-16T18:28:33.617Z,12.00
2018-04-16T18:31:07.229Z,11.90
2018-04-16T18:33:40.845Z,11.80
2018-04-16T18:36:14.421Z,12.00
2018-04-16T18:38:48.009Z,12.20
2018-04-16T18:41:21.607Z,12.10
2018-04-16T18:43:55.283Z,11.80
2018-04-16T18:46:29.958Z,11.90
2018-04-16T18:49:03.588Z,11.90
2018-04-16T18:51:37.139Z,11.70
2018-04-16T18:54:10.730Z,11.50
2018-04-16T18:56:44.493Z,11.50
2018-04-16T18:59:18.409Z,11.60
2018-04-16T19:01:52.252Z,11.80
2018-04-16T19:04:25.957Z,12.00
2018-04-16T19:07:00.424Z,12.00
2018-04-16T19:09:34.911Z,12.00
2018-04-16T19:12:08.709Z,12.00
2018-04-16T19:14:42.256Z,11.90
2018-04-16T19:17:16.030Z,11.70
2018-04-16T19:19:49.632Z,11.60
2018-04-16T19:22:23.228Z,11.50
2018-04-16T19:24:56.787Z,11.50
2018-04-16T19:27:36.179Z,11.70
2018-04-16T19:30:09.810Z,11.80
2018-04-16T19:32:49.033Z,11.90
2018-04-16T19:35:22.748Z,12.00
2018-04-16T19:37:56.329Z,11.90
2018-04-16T19:40:30.698Z,12.10
2018-04-16T19:43:04.374Z,12.10
2018-04-16T19:45:37.906Z,12.20
2018-04-16T19:48:11.612Z,12.30
2018-04-16T19:50:45.155Z,12.30
2018-04-16T19:53:18.747Z,12.30
2018-04-16T19:55:58.067Z,12.40
2018-04-16T19:58:31.644Z,12.10
2018-04-16T20:01:05.281Z,12.30
2018-04-16T20:03:44.581Z,12.30
2018-04-16T20:06:19.005Z,12.30
2018-04-16T20:08:52.595Z,12.30
2018-04-16T20:11:26.190Z,12.30
2018-04-16T20:13:59.942Z,12.30
2018-04-16T20:16:33.505Z,12.40
2018-04-16T20:19:07.053Z,12.30
2018-04-16T20:21:40.584Z,12.00
2018-04-16T20:24:23.336Z,11.60
2018-04-16T20:26:56.933Z,11.60
2018-04-16T20:29:30.524Z,11.80
2018-04-16T20:32:04.884Z,12.00
2018-04-16T20:34:38.560Z,11.90
2018-04-16T20:37:15.723Z,11.90
2018-04-16T20:39:49.248Z,11.90
2018-04-16T20:42:22.820Z,12.00
2018-04-16T20:44:57.248Z,12.00
2018-04-16T20:47:31.141Z,12.10
2018-04-16T20:50:04.697Z,12.10
2018-04-16T20:52:38.359Z,12.10
2018-04-16T20:55:11.964Z,12.10
2018-04-16T20:57:45.575Z,12.10
2018-04-16T21:00:19.142Z,12.10
2018-04-16T21:02:52.776Z,12.10
2018-04-16T21:05:26.529Z,12.10
2018-04-16T21:10:40.387Z,12.00
2018-04-16T21:13:14.049Z,12.00
2018-04-16T21:15:47.717Z,12.00
2018-04-16T21:18:22.198Z,12.00
2018-04-16T21:20:55.727Z,12.10
2018-04-16T21:23:30.220Z,12.00
2018-04-16T21:26:04.016Z,12.00
2018-04-16T21:28:37.636Z,12.00
2018-04-16T21:31:11.489Z,12.00
2018-04-16T21:33:45.257Z,12.00
2018-04-16T21:36:18.898Z,12.00
2018-04-16T21:38:52.577Z,12.00
2018-04-16T21:41:26.266Z,11.90
2018-04-16T21:43:59.982Z,11.90
2018-04-16T21:46:34.466Z,11.80
2018-04-16T21:49:08.347Z,11.90
2018-04-16T21:51:41.901Z,11.80
2018-04-16T21:54:15.580Z,11.90
2018-04-16T21:56:49.354Z,12.00
2018-04-16T21:59:23.157Z,11.90
2018-04-16T22:01:56.972Z,11.90
2018-04-16T22:04:30.589Z,11.90
2018-04-16T22:07:04.183Z,11.90
2018-04-16T22:09:37.791Z,11.80
2018-04-16T22:12:11.410Z,11.70
2018-04-16T22:14:45.834Z,11.80
2018-04-16T22:17:20.343Z,11.80
2018-04-16T22:19:54.764Z,11.80
2018-04-16T22:22:28.765Z,11.80
2018-04-16T22:25:02.570Z,11.80
2018-04-16T22:27:36.378Z,11.80
2018-04-16T22:30:10.017Z,11.70
2018-04-16T22:32:44.389Z,11.70
2018-04-16T22:35:18.094Z,11.70
2018-04-16T22:37:51.738Z,11.80
2018-04-16T22:40:25.528Z,11.70
2018-04-16T22:42:59.194Z,11.70
2018-04-16T22:45:33.735Z,11.70
2018-04-16T22:48:08.145Z,11.70
2018-04-16T22:50:41.831Z,11.70
2018-04-16T22:53:16.189Z,11.60
2018-04-16T22:55:49.815Z,11.60
2018-04-16T22:58:23.447Z,11.60
2018-04-16T23:00:57.801Z,11.60
2018-04-16T23:03:31.415Z,11.60
2018-04-16T23:06:06.013Z,11.60
2018-04-16T23:08:39.712Z,11.60
2018-04-16T23:11:13.428Z,11.60
2018-04-16T23:13:47.278Z,11.70
2018-04-16T23:16:21.664Z,11.60
2018-04-16T23:18:55.343Z,11.60
2018-04-16T23:21:29.102Z,11.40
2018-04-16T23:24:02.761Z,11.40
2018-04-16T23:26:36.493Z,11.40
2018-04-16T23:29:10.091Z,11.40
2018-04-16T23:31:44.491Z,11.50
2018-04-16T23:34:18.181Z,11.50
2018-04-16T23:36:51.809Z,11.50
2018-04-16T23:39:26.251Z,11.30
2018-04-16T23:41:59.911Z,11.30
2018-04-16T23:44:33.493Z,11.20
2018-04-16T23:47:07.048Z,11.30
2018-04-16T23:49:40.718Z,11.40
2018-04-16T23:52:14.300Z,11.40
2018-04-16T23:54:47.900Z,11.40
2018-04-16T23:57:21.482Z,11.50
2018-04-16T23:59:55.112Z,11.40
